Weather History for KERY - April, 2013

Change the Weather History Date:

Friday, April 19, 2013

  Actual Average Record
Temperature  
Mean Temperature 32 °F -  
Max Temperature 42 °F 52 °F 79 °F (1987)
Min Temperature 21 °F 31 °F 13 °F (1926)
Degree Days  
Heating Degree Days 32    
Moisture  
Dew Point 31 °F    
Average Humidity 88    
Maximum Humidity 100    
Minimum Humidity 70    
Precipitation  
Precipitation 0.00 in - - ()
Sea Level Pressure  
Sea Level Pressure 29.25 in    
Wind  
Wind Speed 18 mph (SSW)    
Max Wind Speed 31 mph    
Max Gust Speed 41 mph    
Visibility 6 miles    
Events Rain , Snow    
Averages and records for this station are not official NWS values.
T = Trace of Precipitation, MM = Missing Value Source: NWS Daily Summary

Daily Weather History Graph

Daily Weather History Graph

Search for Another Location

Airport or City:

Trip Planner

Search our weather history database for the weather conditions in past years. The results will help you decide how hot, cold, wet, or windy it might be!

Date:

Astronomy

Apr. 19, 2013 Rise Set
Actual Time 6:47 AM EDT 8:35 PM EDT
Civil Twilight 6:15 AM EDT 9:07 PM EDT
Nautical Twilight 5:36 AM EDT 9:46 PM EDT
Astronomical Twilight 4:54 AM EDT 10:29 PM EDT
Moon 1:58 PM EDT (4/19) 3:24 AM EDT (4/19)
Length of Visible Light 14h 51m
Length of Day
13h 47m
First Quarter, 61% of the Moon is Illuminated
Apr 19
First Quarter
Apr 25
Full
May 2
Last Quarter
May 9
New
May 18
First Quarter

Hourly Weather History & Observations

Time (EDT) Temp. Windchill Dew Point Humidity Pressure Visibility Wind Dir Wind Speed Gust Speed Precip Events Conditions
12:15 AM 39.2 °F 30.8 °F 37.4 °F 93% 29.34 in 3.0 mi East 15.0 mph 21.9 mph N/A   Overcast
12:34 AM 39.2 °F 30.8 °F 37.4 °F 93% 29.32 in 4.0 mi East 15.0 mph 20.7 mph N/A Rain Light Rain
12:55 AM 39.2 °F 30.5 °F 37.4 °F 93% 29.30 in 2.5 mi East 16.1 mph 21.9 mph N/A   Overcast
1:15 AM 39.2 °F 30.5 °F 37.4 °F 93% 29.29 in 1.8 mi East 16.1 mph 23.0 mph N/A   Overcast
1:34 AM 39.2 °F 30.2 °F 37.4 °F 93% 29.28 in 2.0 mi ESE 17.3 mph - N/A   Overcast
1:55 AM 39.2 °F 32.0 °F 39.2 °F 100% 29.29 in 2.0 mi SE 11.5 mph 24.2 mph N/A   Overcast
2:14 AM 39.2 °F 30.8 °F 39.2 °F 100% 29.28 in 2.5 mi ESE 15.0 mph - N/A   Overcast
2:34 AM 41.0 °F 35.2 °F 39.2 °F 93% 29.27 in 2.5 mi SE 9.2 mph - N/A   Overcast
2:55 AM 42.8 °F 35.4 °F 41.0 °F 93% 29.27 in 7.0 mi SSE 15.0 mph - N/A   Drizzle
3:14 AM 42.8 °F 34.5 °F 41.0 °F 93% 29.26 in 1.8 mi South 18.4 mph 24.2 mph N/A   Overcast
3:34 AM 41.0 °F 32.2 °F 39.2 °F 93% 29.25 in 0.5 mi South 18.4 mph 29.9 mph N/A   Overcast
3:55 AM 41.0 °F 32.8 °F 39.2 °F 93% 29.23 in 2.0 mi South 16.1 mph 25.3 mph N/A   Overcast
4:14 AM 39.2 °F 29.3 °F 39.2 °F 100% 29.25 in 7.0 mi South 20.7 mph 29.9 mph N/A   Overcast
4:35 AM 39.2 °F 29.6 °F 37.4 °F 93% 29.23 in 7.0 mi South 19.6 mph 24.2 mph N/A   Overcast
4:54 AM 39.2 °F 30.8 °F 37.4 °F 93% 29.22 in 10.0 mi South 15.0 mph 24.2 mph N/A   Overcast
5:14 AM 37.4 °F 29.3 °F 37.4 °F 100% 29.22 in 10.0 mi South 12.7 mph 17.3 mph N/A   Overcast
5:35 AM 37.4 °F 29.3 °F 37.4 °F 100% 29.21 in 10.0 mi South 12.7 mph 21.9 mph N/A   Overcast
5:54 AM 37.4 °F 28.5 °F 35.6 °F 93% 29.21 in 5.0 mi South 15.0 mph 23.0 mph N/A   Overcast
6:15 AM 37.4 °F 27.5 °F 35.6 °F 93% 29.20 in 10.0 mi South 18.4 mph 24.2 mph N/A   Overcast
6:54 AM 37.4 °F 26.9 °F 35.6 °F 93% 29.20 in 10.0 mi South 20.7 mph 26.5 mph N/A   Overcast
7:15 AM 37.4 °F 26.9 °F 33.8 °F 87% 29.20 in 10.0 mi South 20.7 mph 32.2 mph N/A   Overcast
7:35 AM 37.4 °F 27.2 °F 33.8 °F 87% 29.20 in 10.0 mi South 19.6 mph 31.1 mph N/A   Overcast
7:54 AM 37.4 °F 27.2 °F 33.8 °F 87% 29.19 in 10.0 mi South 19.6 mph 29.9 mph N/A   Overcast
8:15 AM 35.6 °F 24.5 °F 33.8 °F 93% 29.18 in 10.0 mi South 20.7 mph 34.5 mph N/A   Overcast
8:34 AM 35.6 °F 24.5 °F 33.8 °F 93% 29.18 in 10.0 mi South 20.7 mph 27.6 mph N/A   Overcast
8:55 AM 35.6 °F 24.8 °F 33.8 °F 93% 29.17 in 10.0 mi South 19.6 mph 31.1 mph N/A   Overcast
9:14 AM 35.6 °F 25.9 °F 33.8 °F 93% 29.17 in 10.0 mi South 16.1 mph 28.8 mph N/A   Overcast
9:35 AM 35.6 °F 24.5 °F 32.0 °F 87% 29.16 in 10.0 mi SSW 20.7 mph 28.8 mph N/A   Overcast
9:55 AM 35.6 °F 25.5 °F 33.8 °F 93% 29.16 in 10.0 mi SSW 17.3 mph 29.9 mph N/A   Overcast
10:14 AM 35.6 °F 24.5 °F 32.0 °F 87% 29.15 in 10.0 mi South 20.7 mph 28.8 mph N/A   Overcast
10:54 AM 35.6 °F 24.5 °F 30.2 °F 81% 29.15 in 10.0 mi SSW 20.7 mph 31.1 mph N/A   Overcast
11:14 AM 35.6 °F 25.9 °F 30.2 °F 81% 29.14 in 10.0 mi South 16.1 mph 23.0 mph N/A   Overcast
11:35 AM 35.6 °F 25.2 °F 30.2 °F 81% 29.14 in 10.0 mi SSW 18.4 mph 31.1 mph N/A   Overcast
11:54 AM 35.6 °F 24.8 °F 30.2 °F 81% 29.14 in 10.0 mi South 19.6 mph 26.5 mph N/A   Overcast
12:14 PM 35.6 °F 23.2 °F 30.2 °F 81% 29.14 in 10.0 mi South 26.5 mph 31.1 mph N/A   Overcast
12:35 PM 35.6 °F 25.5 °F 30.2 °F 81% 29.14 in 10.0 mi South 17.3 mph 32.2 mph N/A   Overcast
12:54 PM 35.6 °F 25.9 °F 30.2 °F 81% 29.13 in 10.0 mi South 16.1 mph 31.1 mph N/A   Overcast
1:15 PM 35.6 °F 25.9 °F 30.2 °F 81% 29.13 in 5.0 mi South 16.1 mph 31.1 mph N/A   Overcast
1:35 PM 35.6 °F 24.8 °F 30.2 °F 81% 29.12 in 7.0 mi South 19.6 mph 28.8 mph N/A   Overcast
1:54 PM 35.6 °F 23.0 °F 30.2 °F 81% 29.11 in 10.0 mi SSW 27.6 mph 34.5 mph N/A   Overcast
2:15 PM 35.6 °F 25.5 °F 30.2 °F 81% 29.11 in 7.0 mi South 17.3 mph 33.4 mph N/A   Overcast
2:34 PM 35.6 °F 24.5 °F 32.0 °F 87% 29.10 in 7.0 mi South 20.7 mph 33.4 mph N/A   Overcast
2:54 PM 35.6 °F 24.5 °F 32.0 °F 87% 29.10 in 10.0 mi South 20.7 mph 25.3 mph N/A   Overcast
3:15 PM 35.6 °F 24.0 °F 33.8 °F 93% 29.10 in 10.0 mi SSW 23.0 mph 28.8 mph N/A   Overcast
3:34 PM 35.6 °F 24.5 °F 32.0 °F 87% 29.11 in 5.0 mi SSW 20.7 mph - N/A Snow Light Snow
3:54 PM 35.6 °F 26.2 °F 32.0 °F 87% 29.12 in 3.0 mi SW 15.0 mph 25.3 mph N/A Snow Light Snow
4:14 PM 33.8 °F 22.8 °F 30.2 °F 87% 29.13 in 2.0 mi SW 18.4 mph 26.5 mph N/A Snow Light Snow
4:34 PM 35.6 °F 24.8 °F 28.4 °F 75% 29.15 in 10.0 mi SW 19.6 mph 33.4 mph N/A   Overcast
5:14 PM 35.6 °F 23.2 °F 26.6 °F 70% 29.17 in 10.0 mi WSW 26.5 mph 39.1 mph N/A   Overcast
5:34 PM 33.8 °F 21.3 °F 26.6 °F 75% 29.19 in 10.0 mi SW 24.2 mph 38.0 mph N/A   Overcast
5:55 PM 32.0 °F 18.4 °F 26.6 °F 80% 29.20 in 3.0 mi SW 26.5 mph 41.4 mph N/A Snow Light Snow
6:14 PM 30.2 °F 14.9 °F 26.6 °F 86% 29.21 in 3.0 mi SW 31.1 mph 35.7 mph N/A Snow Light Snow
6:35 PM 30.2 °F 15.7 °F 26.6 °F 86% 29.22 in 0.5 mi SW 27.6 mph 38.0 mph N/A Snow Light Snow
6:55 PM 30.2 °F 16.2 °F 26.6 °F 86% 29.25 in 0.8 mi WSW 25.3 mph 32.2 mph N/A Snow Light Snow
7:14 PM 30.2 °F 15.9 °F 28.4 °F 93% 29.28 in 0.5 mi WSW 26.5 mph 35.7 mph N/A Snow Light Snow
7:34 PM 30.2 °F 15.7 °F 28.4 °F 93% 29.30 in 0.5 mi West 27.6 mph 38.0 mph N/A Snow Light Snow
7:54 PM 28.4 °F 13.8 °F 26.6 °F 93% 29.34 in 0.5 mi West 25.3 mph 40.3 mph N/A Snow Light Snow
8:14 PM 28.4 °F 13.3 °F 26.6 °F 93% 29.38 in 0.8 mi West 27.6 mph 34.5 mph N/A Snow Light Snow
8:34 PM 26.6 °F 10.8 °F 24.8 °F 93% 29.42 in 1.2 mi WNW 27.6 mph 39.1 mph N/A Snow Light Snow
8:55 PM 26.6 °F 13.1 °F 23.0 °F 86% 29.45 in 3.0 mi West 19.6 mph 31.1 mph N/A Snow Light Snow
9:14 PM 26.6 °F 14.3 °F 23.0 °F 86% 29.47 in 1.8 mi WNW 16.1 mph 27.6 mph N/A Snow Light Snow
9:35 PM 24.8 °F 11.1 °F 21.2 °F 86% 29.50 in 3.0 mi NW 18.4 mph 26.5 mph N/A Snow Light Snow
9:55 PM 24.8 °F 11.9 °F 21.2 °F 86% 29.53 in 3.0 mi WNW 16.1 mph 24.2 mph N/A Snow Light Snow
10:14 PM 24.8 °F 12.4 °F 21.2 °F 86% 29.54 in 3.0 mi WNW 15.0 mph 26.5 mph N/A Snow Light Snow
10:35 PM 24.8 °F 13.4 °F 19.4 °F 80% 29.56 in 3.0 mi WNW 12.7 mph 24.2 mph N/A Snow Light Snow
10:55 PM 24.8 °F 12.9 °F 19.4 °F 80% 29.57 in 7.0 mi NW 13.8 mph 20.7 mph N/A Snow Light Snow
11:14 PM 23.0 °F 10.6 °F 19.4 °F 86% 29.59 in 7.0 mi WNW 13.8 mph 23.0 mph N/A Snow Light Snow
11:35 PM 23.0 °F 9.6 °F 17.6 °F 80% 29.60 in 4.0 mi WNW 16.1 mph 24.2 mph N/A Snow Light Snow
11:54 PM 21.2 °F 8.9 °F 19.4 °F 93% 29.62 in 1.2 mi NW 12.7 mph 21.9 mph N/A Snow Light Snow